createdAt,value
2019-01-08T00:02:07.670Z,101902.40
2019-01-08T00:04:36.904Z,101902.52
2019-01-08T00:07:05.980Z,101907.30
2019-01-08T00:09:35.056Z,101907.30
2019-01-08T00:12:04.075Z,101903.48
2019-01-08T00:14:33.269Z,101903.48
2019-01-08T00:17:02.308Z,101892.55
2019-01-08T00:19:31.426Z,101890.25
2019-01-08T00:22:00.469Z,101883.16
2019-01-08T00:24:29.568Z,101874.37
2019-01-08T00:26:58.671Z,101874.37
2019-01-08T00:29:27.743Z,101874.93
2019-01-08T00:31:56.857Z,101874.93
2019-01-08T00:34:25.923Z,101868.86
2019-01-08T00:36:55.018Z,101874.47
2019-01-08T00:39:24.126Z,101871.95
2019-01-08T00:41:53.129Z,101873.39
2019-01-08T00:44:22.209Z,101867.08
2019-01-08T00:46:52.097Z,101867.41
2019-01-08T00:49:21.128Z,101866.25
2019-01-08T00:51:50.136Z,101863.34
2019-01-08T00:54:19.288Z,101863.70
2019-01-08T00:56:48.364Z,101859.48
2019-01-08T00:59:17.379Z,101859.48
2019-01-08T01:01:46.456Z,101860.01
2019-01-08T01:04:15.550Z,101847.48
2019-01-08T01:06:44.605Z,101857.97
2019-01-08T01:09:13.777Z,101850.87
2019-01-08T01:11:42.877Z,101851.83
2019-01-08T01:14:11.946Z,101840.83
2019-01-08T01:16:41.056Z,101843.31
2019-01-08T01:19:10.126Z,101839.19
2019-01-08T01:21:39.133Z,101848.45
2019-01-08T01:24:08.180Z,101842.94
2019-01-08T01:26:37.230Z,101842.94
2019-01-08T01:29:06.222Z,101834.11
2019-01-08T01:31:35.354Z,101829.09
2019-01-08T01:34:04.409Z,101825.66
2019-01-08T01:36:33.509Z,101825.66
2019-01-08T01:39:02.534Z,101827.28
2019-01-08T01:41:31.529Z,101827.28
2019-01-08T01:44:00.631Z,101817.31
2019-01-08T01:46:29.732Z,101817.31
2019-01-08T01:48:58.849Z,101824.38
2019-01-08T01:51:28.055Z,101828.19
2019-01-08T01:53:57.143Z,101828.19
2019-01-08T01:56:26.253Z,101815.91
2019-01-08T01:58:55.416Z,101810.84
2019-01-08T02:01:24.492Z,101810.84
2019-01-08T02:03:53.588Z,101810.10
2019-01-08T02:06:22.721Z,101810.10
2019-01-08T02:08:51.832Z,101803.69
2019-01-08T02:11:20.881Z,101803.44
2019-01-08T02:13:50.028Z,101800.91
2019-01-08T02:16:19.145Z,101800.91
2019-01-08T02:18:48.151Z,101801.45
2019-01-08T02:21:17.248Z,101800.17
2019-01-08T02:23:46.272Z,101800.17
2019-01-08T02:26:15.511Z,101788.32
2019-01-08T02:28:44.648Z,101791.29
2019-01-08T02:31:13.773Z,101776.95
2019-01-08T02:33:42.922Z,101783.72
2019-01-08T02:36:11.964Z,101783.72
2019-01-08T02:38:41.000Z,101785.35
2019-01-08T02:41:10.105Z,101785.35
2019-01-08T02:43:39.170Z,101776.95
2019-01-08T02:46:08.449Z,101776.95
2019-01-08T02:48:38.300Z,101771.75
2019-01-08T02:51:07.476Z,101771.75
2019-01-08T02:53:36.537Z,101767.64
2019-01-08T02:56:05.666Z,101770.25
2019-01-08T02:58:34.689Z,101765.17
2019-01-08T03:01:03.747Z,101766.31
2019-01-08T03:03:32.886Z,101759.19
2019-01-08T03:06:01.837Z,101759.19
2019-01-08T03:08:30.950Z,101751.21
2019-01-08T03:11:00.054Z,101750.55
2019-01-08T03:13:29.168Z,101752.89
2019-01-08T03:15:58.243Z,101752.89
2019-01-08T03:18:27.244Z,101743.00
2019-01-08T03:20:56.236Z,101743.00
2019-01-08T03:23:25.301Z,101743.81
2019-01-08T03:25:54.556Z,101724.36
2019-01-08T03:28:23.764Z,101729.70
2019-01-08T03:30:52.929Z,101731.55
2019-01-08T03:33:22.166Z,101731.91
2019-01-08T03:35:51.255Z,101731.91
2019-01-08T03:38:20.428Z,101720.55
2019-01-08T03:40:49.557Z,101714.92
2019-01-08T03:43:18.633Z,101699.16
2019-01-08T03:45:47.810Z,101699.52
2019-01-08T03:48:16.989Z,101687.73
2019-01-08T03:50:46.141Z,101693.52
2019-01-08T03:53:15.223Z,101682.88
2019-01-08T03:55:44.441Z,101682.88
2019-01-08T03:58:13.459Z,101682.80
2019-01-08T04:00:42.566Z,101676.53
2019-01-08T04:03:11.770Z,101667.23
2019-01-08T04:05:40.959Z,101667.23
2019-01-08T04:08:09.998Z,101665.38
2019-01-08T04:10:39.067Z,101665.38
2019-01-08T04:13:08.158Z,101662.73
2019-01-08T04:15:37.176Z,101649.53
2019-01-08T04:18:06.231Z,101649.53
2019-01-08T04:20:35.239Z,101637.13
2019-01-08T04:23:04.338Z,101637.13
2019-01-08T04:25:33.345Z,101646.02
2019-01-08T04:28:02.490Z,101645.23
2019-01-08T04:30:31.471Z,101645.23
2019-01-08T04:33:00.568Z,101628.53
2019-01-08T04:35:29.661Z,101624.34
2019-01-08T04:37:58.774Z,101624.34
2019-01-08T04:40:27.851Z,101640.80
2019-01-08T04:42:56.985Z,101652.93
2019-01-08T04:45:26.041Z,101653.90
2019-01-08T04:47:55.187Z,101653.90
2019-01-08T04:50:24.132Z,101646.56
2019-01-08T04:52:53.180Z,101633.56
2019-01-08T04:55:22.356Z,101636.48
2019-01-08T04:57:51.441Z,101614.83
2019-01-08T05:00:20.606Z,101614.83
2019-01-08T05:02:49.701Z,101622.19
2019-01-08T05:05:18.757Z,101617.03
2019-01-08T05:07:47.827Z,101617.03
2019-01-08T05:10:16.931Z,101611.06
2019-01-08T05:12:47.996Z,101611.06
2019-01-08T05:15:16.856Z,101603.31
2019-01-08T05:17:46.059Z,101616.12
2019-01-08T05:20:15.049Z,101616.12
2019-01-08T05:22:44.071Z,101595.80
2019-01-08T05:25:13.208Z,101593.77
2019-01-08T05:27:42.184Z,101593.77
2019-01-08T05:30:11.316Z,101649.89
2019-01-08T05:32:40.426Z,101649.89
2019-01-08T05:35:09.434Z,101610.55
2019-01-08T05:37:38.546Z,101610.55
2019-01-08T05:40:07.789Z,101605.61
2019-01-08T05:42:36.819Z,101597.08
2019-01-08T05:45:05.982Z,101594.61
2019-01-08T05:47:35.021Z,101609.79
2019-01-08T05:50:04.180Z,101602.70
2019-01-08T05:52:33.271Z,101602.70
2019-01-08T05:55:02.303Z,101591.52
2019-01-08T05:57:31.344Z,101588.83
2019-01-08T06:00:00.489Z,101591.95
2019-01-08T06:02:29.669Z,101591.95
2019-01-08T06:04:58.673Z,101594.86
2019-01-08T06:07:27.779Z,101594.86
2019-01-08T06:09:56.837Z,101595.63
2019-01-08T06:12:25.972Z,101591.53
2019-01-08T06:14:54.953Z,101591.53
2019-01-08T06:17:24.135Z,101585.61
2019-01-08T06:19:55.099Z,101585.74
2019-01-08T06:22:24.048Z,101585.74
2019-01-08T06:24:53.186Z,101582.52
2019-01-08T06:27:22.348Z,101581.56
2019-01-08T06:29:51.361Z,101559.71
2019-01-08T06:32:20.466Z,101575.87
2019-01-08T06:34:49.574Z,101561.20
2019-01-08T06:37:18.603Z,101561.20
2019-01-08T06:39:47.701Z,101567.55
2019-01-08T06:42:19.649Z,101567.55
2019-01-08T06:44:48.740Z,101581.86
2019-01-08T06:47:17.829Z,101581.86
2019-01-08T06:49:46.855Z,101562.10
2019-01-08T06:52:15.921Z,101571.41
2019-01-08T06:54:45.089Z,101557.53
2019-01-08T06:57:14.225Z,101568.92
2019-01-08T06:59:43.445Z,101573.09
2019-01-08T07:02:12.432Z,101573.09
2019-01-08T07:04:41.463Z,101564.64
2019-01-08T07:07:10.624Z,101569.16
2019-01-08T07:09:39.759Z,101556.86
2019-01-08T07:12:08.866Z,101564.88
2019-01-08T07:14:37.965Z,101569.30
2019-01-08T07:17:06.956Z,101571.67
2019-01-08T07:19:36.117Z,101561.03
2019-01-08T07:22:05.426Z,101561.03
2019-01-08T07:24:34.637Z,101567.38
2019-01-08T07:27:03.708Z,101574.02
2019-01-08T07:29:32.821Z,101554.56
2019-01-08T07:32:01.987Z,101554.56
2019-01-08T07:34:31.194Z,101579.28
2019-01-08T07:37:00.245Z,101579.28
2019-01-08T07:39:29.362Z,101568.75
2019-01-08T07:41:58.415Z,101584.45
2019-01-08T07:44:27.455Z,101584.45
2019-01-08T07:46:56.577Z,101584.84
2019-01-08T07:49:25.753Z,101562.97
2019-01-08T07:51:54.896Z,101562.97
2019-01-08T07:54:24.022Z,101552.52
2019-01-08T07:56:53.168Z,101563.50
2019-01-08T07:59:22.421Z,101556.30
2019-01-08T08:01:51.644Z,101556.30
2019-01-08T08:04:20.774Z,101557.82
2019-01-08T08:06:49.871Z,101552.67
2019-01-08T08:09:18.888Z,101558.10
2019-01-08T08:11:48.058Z,101549.88
2019-01-08T08:14:17.257Z,101553.33
2019-01-08T08:16:46.493Z,101549.90
2019-01-08T08:19:15.536Z,101566.86
2019-01-08T08:21:44.611Z,101560.84
2019-01-08T08:24:13.716Z,101560.84
2019-01-08T08:26:42.981Z,101545.23
2019-01-08T08:29:12.060Z,101555.31
2019-01-08T08:31:41.160Z,101548.48
2019-01-08T08:34:10.321Z,101551.70
2019-01-08T08:36:39.503Z,101551.70
2019-01-08T08:39:08.699Z,101547.60
2019-01-08T08:41:37.767Z,101547.60
2019-01-08T08:44:06.917Z,101548.14
2019-01-08T08:46:35.981Z,101538.09
2019-01-08T08:49:05.077Z,101538.69
2019-01-08T08:51:34.185Z,101552.28
2019-01-08T08:54:03.288Z,101557.36
2019-01-08T08:56:32.440Z,101529.37
2019-01-08T08:59:01.540Z,101529.37
2019-01-08T09:01:30.715Z,101556.87
2019-01-08T09:03:59.789Z,101564.00
2019-01-08T09:06:28.854Z,101562.78
2019-01-08T09:08:57.925Z,101560.56
2019-01-08T09:11:27.048Z,101560.56
2019-01-08T09:13:56.299Z,101567.83
2019-01-08T09:16:25.451Z,101561.56
2019-01-08T09:18:54.493Z,101561.56
2019-01-08T09:21:23.573Z,101550.83
2019-01-08T09:23:52.651Z,101554.42
2019-01-08T09:26:21.669Z,101554.42
2019-01-08T09:28:50.885Z,101570.85
2019-01-08T09:31:20.064Z,101587.94
2019-01-08T09:33:49.056Z,101581.73
2019-01-08T09:36:18.255Z,101581.73
2019-01-08T09:38:47.299Z,101583.42
2019-01-08T09:41:16.594Z,101585.11
2019-01-08T09:43:45.714Z,101588.86
2019-01-08T09:46:14.896Z,101588.86
2019-01-08T09:48:43.966Z,101579.07
2019-01-08T09:51:13.000Z,101586.31
2019-01-08T09:53:42.038Z,101584.56
2019-01-08T09:56:11.064Z,101565.10
2019-01-08T09:58:40.259Z,101584.72
2019-01-08T10:01:09.359Z,101584.72
2019-01-08T10:03:38.461Z,101587.61
2019-01-08T10:06:07.557Z,101593.41
2019-01-08T10:08:36.603Z,101591.77
2019-01-08T10:11:07.372Z,101611.95
2019-01-08T10:13:36.784Z,101600.45
2019-01-08T10:16:05.840Z,101594.03
2019-01-08T10:18:34.832Z,101594.03
2019-01-08T10:21:03.987Z,101600.09
2019-01-08T10:23:33.144Z,101600.09
2019-01-08T10:26:02.208Z,101597.20
2019-01-08T10:28:31.271Z,101578.30
2019-01-08T10:31:00.551Z,101578.30
2019-01-08T10:33:29.690Z,101593.45
2019-01-08T10:35:59.038Z,101588.42
2019-01-08T10:38:28.111Z,101582.06
2019-01-08T10:40:57.392Z,101592.52
2019-01-08T10:43:26.683Z,101582.41
2019-01-08T10:45:55.871Z,101590.47
2019-01-08T10:48:25.101Z,101586.44
2019-01-08T10:50:54.318Z,101593.14
2019-01-08T10:53:23.453Z,101593.14
2019-01-08T10:55:52.474Z,101592.36
2019-01-08T10:58:21.923Z,101573.84
2019-01-08T11:00:51.136Z,101593.58
2019-01-08T11:03:20.199Z,101593.58
2019-01-08T11:05:49.352Z,101593.05
2019-01-08T11:08:18.491Z,101603.60
2019-01-08T11:10:47.671Z,101603.60
2019-01-08T11:13:16.897Z,101583.25
2019-01-08T11:15:46.083Z,101578.29
2019-01-08T11:18:15.298Z,101578.94
2019-01-08T11:20:44.433Z,101574.81
2019-01-08T11:23:13.614Z,101589.45
2019-01-08T11:25:42.655Z,101600.25
2019-01-08T11:28:11.884Z,101591.08
2019-01-08T11:30:41.042Z,101578.85
2019-01-08T11:33:10.076Z,101578.85
2019-01-08T11:35:42.368Z,101563.37
2019-01-08T11:38:10.125Z,101574.69
2019-01-08T11:40:39.243Z,101582.66
2019-01-08T11:43:08.337Z,101587.11
2019-01-08T11:45:37.583Z,101579.34
2019-01-08T11:48:06.700Z,101572.12
2019-01-08T11:50:35.875Z,101568.12
2019-01-08T11:53:04.996Z,101578.91
2019-01-08T11:55:34.001Z,101578.91
2019-01-08T11:58:03.226Z,101576.77
2019-01-08T12:00:32.351Z,101571.06
2019-01-08T12:03:01.432Z,101580.73
2019-01-08T12:05:30.607Z,101588.40
2019-01-08T12:08:00.051Z,101588.40
2019-01-08T12:10:29.216Z,101587.13
2019-01-08T12:12:58.578Z,101586.91
2019-01-08T12:15:27.705Z,101573.34
2019-01-08T12:17:56.736Z,101586.64
2019-01-08T12:20:25.988Z,101581.02
2019-01-08T12:22:55.082Z,101581.02
2019-01-08T12:25:24.343Z,101591.14
2019-01-08T12:27:53.490Z,101571.69
2019-01-08T12:30:22.603Z,101571.69
2019-01-08T12:32:51.677Z,101569.45
2019-01-08T12:35:20.814Z,101571.63
2019-01-08T12:37:49.874Z,101581.55
2019-01-08T12:40:19.066Z,101581.55
2019-01-08T12:42:48.315Z,101584.66
2019-01-08T12:45:17.496Z,101584.66
2019-01-08T12:47:46.528Z,101571.00
2019-01-08T12:50:15.640Z,101562.59
2019-01-08T12:52:44.828Z,101582.27
2019-01-08T12:55:13.950Z,101582.27
2019-01-08T12:57:43.157Z,101578.66
2019-01-08T13:00:12.568Z,101578.66
2019-01-08T13:02:41.601Z,101582.88
2019-01-08T13:05:10.833Z,101565.85
2019-01-08T13:07:39.960Z,101565.85
2019-01-08T13:10:09.174Z,101573.92
2019-01-08T13:12:38.272Z,101559.77
2019-01-08T13:15:07.550Z,101570.06
2019-01-08T13:17:36.685Z,101578.51
2019-01-08T13:20:06.216Z,101578.51
2019-01-08T13:22:35.401Z,101573.92
2019-01-08T13:25:04.539Z,101556.60
2019-01-08T13:27:33.773Z,101578.57
2019-01-08T13:30:02.947Z,101575.97
2019-01-08T13:32:32.194Z,101573.89
2019-01-08T13:35:01.256Z,101570.26
2019-01-08T13:37:30.351Z,101573.48
2019-01-08T13:39:59.389Z,101562.69
2019-01-08T13:42:28.538Z,101579.80
2019-01-08T13:44:57.772Z,101579.80
2019-01-08T13:47:26.944Z,101583.63
2019-01-08T13:49:56.019Z,101580.39
2019-01-08T13:52:25.197Z,101580.39
2019-01-08T13:54:54.320Z,101595.95
2019-01-08T13:57:23.535Z,101595.95
2019-01-08T13:59:52.811Z,101612.86
2019-01-08T14:02:21.997Z,101603.44
2019-01-08T14:04:51.134Z,101597.89
2019-01-08T14:07:20.100Z,101609.89
2019-01-08T14:09:49.252Z,101609.89
2019-01-08T14:12:18.558Z,101615.76
2019-01-08T14:14:47.657Z,101599.23
2019-01-08T14:17:16.875Z,101599.23
2019-01-08T14:19:45.950Z,101627.58
2019-01-08T14:22:15.049Z,101631.51
2019-01-08T14:24:44.189Z,101629.89
2019-01-08T14:27:13.337Z,101629.89
2019-01-08T14:29:42.458Z,101625.93
2019-01-08T14:32:11.696Z,101625.93
2019-01-08T14:34:40.773Z,101642.63
2019-01-08T14:37:09.881Z,101642.63
2019-01-08T14:39:39.045Z,101636.76
2019-01-08T14:42:08.286Z,101638.95
2019-01-08T14:44:37.364Z,101647.20
2019-01-08T14:47:06.484Z,101645.93
2019-01-08T14:49:35.534Z,101669.19
2019-01-08T14:52:04.609Z,101662.38
2019-01-08T14:54:33.841Z,101652.70
2019-01-08T14:57:02.957Z,101645.12
2019-01-08T14:59:32.117Z,101654.29
2019-01-08T15:02:01.209Z,101654.29
2019-01-08T15:04:30.471Z,101659.02
2019-01-08T15:06:59.563Z,101659.50
2019-01-08T15:09:28.808Z,101659.50
2019-01-08T15:11:57.938Z,101662.25
2019-01-08T15:14:26.959Z,101662.25
2019-01-08T15:16:56.130Z,101644.17
2019-01-08T15:19:25.275Z,101644.17
2019-01-08T15:21:54.347Z,101670.46
2019-01-08T15:24:23.491Z,101667.08
2019-01-08T15:26:52.762Z,101658.34
2019-01-08T15:29:21.911Z,101676.53
2019-01-08T15:31:51.035Z,101689.53
2019-01-08T15:34:20.199Z,101689.53
2019-01-08T15:36:49.235Z,101659.89
2019-01-08T15:39:18.278Z,101659.89
2019-01-08T15:41:47.437Z,101661.91
2019-01-08T15:44:16.478Z,101661.91
2019-01-08T15:46:45.628Z,101685.23
2019-01-08T15:49:14.861Z,101694.69
2019-01-08T15:51:43.859Z,101691.00
2019-01-08T15:54:13.005Z,101678.23
2019-01-08T15:56:42.187Z,101678.23
2019-01-08T15:59:11.305Z,101687.05
2019-01-08T16:01:40.408Z,101687.05
2019-01-08T16:04:09.593Z,101695.46
2019-01-08T16:06:38.774Z,101685.73
2019-01-08T16:09:08.830Z,101692.51
2019-01-08T16:11:38.073Z,101692.51
2019-01-08T16:14:07.144Z,101686.23
2019-01-08T16:16:36.365Z,101700.00
2019-01-08T16:19:05.463Z,101705.52
2019-01-08T16:21:34.593Z,101705.52
2019-01-08T16:24:03.714Z,101712.65
2019-01-08T16:26:32.904Z,101692.44
2019-01-08T16:29:02.066Z,101698.30
2019-01-08T16:31:31.091Z,101689.19
2019-01-08T16:34:00.207Z,101689.19
2019-01-08T16:36:29.335Z,101703.80
2019-01-08T16:38:58.527Z,101703.80
2019-01-08T16:41:27.524Z,101696.74
2019-01-08T16:43:56.531Z,101696.74
2019-01-08T16:46:25.521Z,101693.88
2019-01-08T16:48:54.545Z,101696.05
2019-01-08T16:51:23.644Z,101696.05
2019-01-08T16:53:52.651Z,101707.91
2019-01-08T16:56:21.865Z,101714.78
2019-01-08T16:58:51.028Z,101714.41
2019-01-08T17:01:20.121Z,101714.41
2019-01-08T17:03:49.139Z,101705.05
2019-01-08T17:06:18.197Z,101712.25
2019-01-08T17:08:47.216Z,101695.39
2019-01-08T17:11:16.423Z,101695.39
2019-01-08T17:13:45.439Z,101712.77
2019-01-08T17:16:16.209Z,101728.86
2019-01-08T17:18:45.365Z,101714.11
2019-01-08T17:21:14.528Z,101727.22
2019-01-08T17:23:43.706Z,101717.02
2019-01-08T17:26:12.779Z,101731.44
2019-01-08T17:28:42.019Z,101731.44
2019-01-08T17:31:11.157Z,101730.02
2019-01-08T17:33:40.278Z,101744.40
2019-01-08T17:36:09.293Z,101731.70
2019-01-08T17:38:38.451Z,101720.59
2019-01-08T17:41:07.648Z,101719.70
2019-01-08T17:43:36.663Z,101719.70
2019-01-08T17:46:05.859Z,101730.69
2019-01-08T17:48:35.061Z,101723.39
2019-01-08T17:51:04.263Z,101735.64
2019-01-08T17:53:33.360Z,101735.64
2019-01-08T17:56:02.532Z,101744.41
2019-01-08T17:58:42.968Z,101735.47
2019-01-08T18:01:32.517Z,101751.08
2019-01-08T18:04:01.616Z,101751.08
2019-01-08T18:06:30.763Z,101741.34
2019-01-08T18:08:59.741Z,101741.34
2019-01-08T18:11:28.845Z,101745.63
2019-01-08T18:13:58.054Z,101749.75
2019-01-08T18:16:27.144Z,101744.29
2019-01-08T18:18:56.105Z,101751.06
2019-01-08T18:21:25.288Z,101762.67
2019-01-08T18:23:54.374Z,101762.67
2019-01-08T18:26:23.595Z,101757.75
2019-01-08T18:28:52.689Z,101750.20
2019-01-08T18:31:21.904Z,101748.57
2019-01-08T18:33:54.461Z,101741.41
2019-01-08T18:36:24.072Z,101741.41
2019-01-08T18:38:53.139Z,101750.74
2019-01-08T18:41:22.278Z,101732.71
2019-01-08T18:43:52.637Z,101739.55
2019-01-08T18:46:21.763Z,101739.55
2019-01-08T18:48:51.045Z,101741.40
2019-01-08T18:51:20.110Z,101754.19
2019-01-08T18:53:49.204Z,101759.62
2019-01-08T18:56:18.377Z,101754.19
2019-01-08T18:58:47.365Z,101752.00
2019-01-08T19:01:16.581Z,101757.51
2019-01-08T19:03:45.729Z,101770.73
2019-01-08T19:06:14.779Z,101778.95
2019-01-08T19:09:19.921Z,101778.95
2019-01-08T19:11:49.109Z,101773.98
2019-01-08T19:14:18.999Z,101773.98
2019-01-08T19:16:48.222Z,101769.36
2019-01-08T19:19:17.495Z,101763.91
2019-01-08T19:21:47.771Z,101763.91
2019-01-08T19:24:16.911Z,101765.80
2019-01-08T19:26:46.022Z,101768.28
2019-01-08T19:29:15.122Z,101773.03
2019-01-08T19:31:44.191Z,101766.27
2019-01-08T19:34:13.318Z,101768.06
2019-01-08T19:36:42.461Z,101772.23
2019-01-08T19:39:11.668Z,101771.72
2019-01-08T19:41:40.842Z,101774.66
2019-01-08T19:44:10.055Z,101759.46
2019-01-08T19:46:39.298Z,101759.46
2019-01-08T19:49:08.430Z,101784.77
2019-01-08T19:51:37.428Z,101782.66
2019-01-08T19:54:06.591Z,101782.66
2019-01-08T19:56:35.723Z,101758.34
2019-01-08T19:59:04.880Z,101758.34
2019-01-08T20:01:33.994Z,101764.63
2019-01-08T20:04:03.646Z,101766.38
2019-01-08T20:06:32.860Z,101771.97
2019-01-08T20:09:02.096Z,101771.97
2019-01-08T20:11:31.189Z,101777.61
2019-01-08T20:14:00.352Z,101765.36
2019-01-08T20:16:29.638Z,101761.27
2019-01-08T20:18:58.828Z,101770.98
2019-01-08T20:21:28.042Z,101770.98
2019-01-08T20:23:57.145Z,101779.49
2019-01-08T20:26:26.361Z,101779.49
2019-01-08T20:28:55.457Z,101786.28
2019-01-08T20:31:24.718Z,101784.08
2019-01-08T20:33:53.810Z,101786.91
2019-01-08T20:36:22.966Z,101787.79
2019-01-08T20:38:51.972Z,101787.79
2019-01-08T20:41:20.987Z,101792.34
2019-01-08T20:43:50.146Z,101792.34
2019-01-08T20:46:19.244Z,101789.34
2019-01-08T20:48:48.347Z,101793.23
2019-01-08T20:51:17.499Z,101786.42
2019-01-08T20:53:46.677Z,101781.40
2019-01-08T20:56:15.874Z,101780.14
2019-01-08T20:58:44.880Z,101780.14
2019-01-08T21:01:13.975Z,101784.03
2019-01-08T21:03:43.149Z,101780.56
2019-01-08T21:06:12.277Z,101779.49
2019-01-08T21:08:41.517Z,101763.62
2019-01-08T21:11:10.758Z,101763.62
2019-01-08T21:13:39.753Z,101773.39
2019-01-08T21:16:08.892Z,101778.50
2019-01-08T21:18:38.023Z,101778.78
2019-01-08T21:21:07.147Z,101776.52
2019-01-08T21:23:36.304Z,101776.86
2019-01-08T21:26:05.494Z,101776.86
2019-01-08T21:28:34.582Z,101779.63
2019-01-08T21:31:03.758Z,101779.63
2019-01-08T21:33:32.775Z,101780.67
2019-01-08T21:36:01.874Z,101783.00
2019-01-08T21:38:30.881Z,101795.43
2019-01-08T21:40:59.901Z,101794.55
2019-01-08T21:43:28.947Z,101785.72
2019-01-08T21:45:58.075Z,101785.72
2019-01-08T21:48:27.086Z,101788.17
2019-01-08T21:50:56.202Z,101801.72
2019-01-08T21:53:25.384Z,101801.72
2019-01-08T21:55:54.411Z,101794.20
2019-01-08T21:58:23.407Z,101790.74
2019-01-08T22:00:52.497Z,101790.74
2019-01-08T22:03:22.013Z,101784.29
2019-01-08T22:05:51.065Z,101784.29
2019-01-08T22:08:20.249Z,101785.94
2019-01-08T22:10:49.508Z,101779.59
2019-01-08T22:13:18.631Z,101790.91
2019-01-08T22:15:47.762Z,101790.91
2019-01-08T22:18:16.774Z,101781.76
2019-01-08T22:20:45.952Z,101786.36
2019-01-08T22:23:15.051Z,101776.31
2019-01-08T22:25:44.079Z,101776.31
2019-01-08T22:28:13.259Z,101783.19
2019-01-08T22:30:42.487Z,101783.19
2019-01-08T22:33:12.007Z,101778.89
2019-01-08T22:35:41.195Z,101771.76
2019-01-08T22:38:10.227Z,101762.05
2019-01-08T22:40:40.397Z,101765.05
2019-01-08T22:43:09.402Z,101765.05
2019-01-08T22:45:38.597Z,101759.98
2019-01-08T22:48:08.515Z,101759.98
2019-01-08T22:50:37.689Z,101766.14
2019-01-08T22:53:07.437Z,101761.04
2019-01-08T22:55:36.509Z,101763.66
2019-01-08T22:58:05.603Z,101767.45
2019-01-08T23:00:37.547Z,101767.45
2019-01-08T23:03:06.688Z,101771.78
2019-01-08T23:05:35.909Z,101771.78
2019-01-08T23:08:05.094Z,101768.45
2019-01-08T23:10:34.236Z,101766.72
2019-01-08T23:13:03.425Z,101766.72
2019-01-08T23:15:32.607Z,101768.87
2019-01-08T23:18:01.689Z,101754.53
2019-01-08T23:20:30.691Z,101754.53
2019-01-08T23:22:59.775Z,101756.69
2019-01-08T23:25:28.953Z,101756.69
2019-01-08T23:27:58.108Z,101745.08
2019-01-08T23:30:27.338Z,101741.66
2019-01-08T23:32:56.449Z,101729.81
2019-01-08T23:35:25.602Z,101745.37
2019-01-08T23:37:54.823Z,101745.37
2019-01-08T23:40:24.010Z,101739.94
2019-01-08T23:42:53.191Z,101735.45
2019-01-08T23:45:22.408Z,101742.28
2019-01-08T23:47:51.487Z,101742.28
2019-01-08T23:50:20.718Z,101740.32
2019-01-08T23:53:06.197Z,101731.47
2019-01-08T23:55:37.862Z,101733.38
2019-01-08T23:58:10.547Z,101733.38
